EST,Max TemperatureF,Mean TemperatureF,Min TemperatureF,Max Dew PointF,MeanDew PointF,Min DewpointF,Max Humidity, Mean Humidity, Min Humidity, Max Sea Level PressureIn, Mean Sea Level PressureIn, Min Sea Level PressureIn, Max VisibilityMiles, Mean VisibilityMiles, Min VisibilityMiles, Max Wind SpeedMPH, Mean Wind SpeedMPH, Max Gust SpeedMPH,PrecipitationIn, CloudCover, Events, WindDirDegrees
2012-1-1,44,38,32,37,31,23,93,79,65,29.94,29.72,29.51,10,8,2,28,15,43,0.00,7,Snow,253
2012-1-2,32,28,24,27,21,14,86,77,59,30.23,30.05,29.94,7,3,1,23,18,34,0.00,8,Snow,318
2012-1-3,26,24,21,19,14,10,86,67,59,30.35,30.28,30.19,10,8,2,22,13,29,0.00,7,Snow,308
2012-1-4,35,28,21,30,21,12,87,72,63,30.09,29.95,29.88,10,10,10,14,8,18,0.00,2,,228
2012-1-5,42,36,30,30,29,27,93,75,57,29.99,29.91,29.75,10,10,10,14,7,18,0.00,0,,229
2012-1-6,50,42,35,36,33,32,87,64,50,29.72,29.69,29.66,10,10,7,20,13,32,0.00,0,,233
2012-1-7,42,38,32,36,31,27,87,75,70,30.18,29.95,29.72,10,10,7,14,9,21,0.00,5,,307
2012-1-8,41,32,23,30,26,21,100,80,57,30.35,30.29,30.21,10,10,10,10,3,,0.00,1,,213
2012-1-9,42,34,26,32,29,23,100,81,61,30.26,30.08,29.90,10,10,7,18,7,29,0.00,2,,215
2012-1-10,48,37,26,36,32,27,100,78,54,30.05,29.96,29.85,10,9,3,9,5,16,0.00,0,,225
2012-1-11,50,38,26,32,31,27,100,74,50,29.80,29.66,29.50,10,9,3,7,3,,0.00,0,,101
2012-1-12,37,34,28,36,32,27,100,92,80,29.48,29.39,29.31,10,5,1,14,1,21,0.00,7,Rain-Snow,223
2012-1-13,32,26,21,30,25,19,93,86,75,29.94,29.67,29.36,10,2,1,20,10,32,0.00,8,Snow,302
2012-1-14,26,20,14,21,17,10,93,80,73,30.20,30.06,29.96,10,8,1,13,8,16,0.00,7,Snow,217
2012-1-15,24,17,10,12,10,7,92,74,54,30.38,30.29,30.19,10,9,7,13,6,18,0.00,2,,159
2012-1-16,44,34,24,37,20,-44,100,67,4,30.12,29.89,29.74,10,9,1,14,8,22,0.00,2,Rain,177
2012-1-17,37,32,28,37,32,21,100,93,74,30.06,29.69,29.50,10,2,0,25,8,38,0.00,8,Fog-Rain-Snow,358
2012-1-18,26,24,21,18,16,10,80,69,54,30.25,30.14,29.94,10,10,7,15,10,28,0.00,6,Snow,237
2012-1-19,32,23,14,28,14,5,93,73,62,30.11,29.91,29.73,10,8,1,21,13,31,0.00,7,Snow,286
2012-1-20,19,16,14,14,11,9,93,80,63,30.23,30.17,30.11,10,7,1,12,5,,0.00,8,Snow,122
2012-1-21,24,18,12,12,10,9,86,71,54,30.25,30.19,30.09,10,10,10,12,6,,0.00,2,,81
2012-1-22,41,29,17,39,25,10,100,89,73,30.14,29.92,29.56,10,6,1,16,10,24,0.00,5,,140
2012-1-23,48,40,32,45,37,23,100,89,69,29.80,29.51,29.38,10,7,1,26,14,38,0.00,8,Rain,200
2012-1-24,32,31,30,27,26,25,86,78,75,30.32,30.09,29.85,10,10,10,16,12,28,0.00,8,,274
2012-1-25,33,30,28,28,27,27,93,84,78,30.35,30.29,30.17,10,9,5,7,2,,0.00,4,,147
2012-1-26,34,30,27,33,30,26,96,92,86,30.10,29.87,29.64,5,3,1,10,4,,0.00,7,Snow,108
2012-1-27,39,36,33,35,29,23,97,75,61,29.96,29.79,29.58,10,8,1,15,7,25,0.00,6,,288
2012-1-28,36,34,31,32,26,17,99,77,55,30.05,29.88,29.74,10,7,1,23,12,37,0.00,6,Snow,252
2012-1-29,33,30,27,29,23,15,93,75,58,30.20,30.03,29.88,10,8,0,17,11,30,0.00,8,Snow,269
2012-1-30,47,33,20,36,23,15,81,70,58,30.21,30.01,29.84,10,10,5,13,6,23,0.00,4,,179
2012-1-31,56,50,45,46,40,34,78,66,55,29.86,29.82,29.78,10,10,10,23,16,38,0.00,3,,216